createdAt,value
2022-11-11T00:01:15.871Z,89.78
2022-11-11T00:03:44.266Z,89.36
2022-11-11T00:06:14.183Z,89.40
2022-11-11T00:08:44.117Z,89.77
2022-11-11T00:11:14.149Z,89.66
2022-11-11T00:13:43.863Z,89.70
2022-11-11T00:16:13.719Z,89.83
2022-11-11T00:19:00.844Z,89.61
2022-11-11T00:21:43.240Z,89.29
2022-11-11T00:24:40.101Z,88.91
2022-11-11T00:27:09.053Z,88.87
2022-11-11T00:29:37.662Z,88.77
2022-11-11T00:32:24.850Z,88.42
2022-11-11T00:35:11.982Z,88.00
2022-11-11T00:37:40.783Z,87.64
2022-11-11T00:40:13.536Z,87.69
2022-11-11T00:42:42.137Z,87.82
2022-11-11T00:45:11.865Z,87.93
2022-11-11T00:47:57.717Z,87.83
2022-11-11T00:50:45.736Z,87.85
2022-11-11T00:53:15.404Z,87.90
2022-11-11T00:55:45.006Z,88.22
2022-11-11T00:58:13.166Z,88.40
2022-11-11T01:00:41.273Z,88.64
2022-11-11T01:03:09.800Z,88.64
2022-11-11T01:05:38.713Z,88.62
2022-11-11T01:08:07.021Z,88.85
2022-11-11T01:10:42.174Z,88.81
2022-11-11T01:13:22.650Z,88.87
2022-11-11T01:15:53.133Z,89.05
2022-11-11T01:18:23.686Z,89.08
2022-11-11T01:20:59.886Z,89.09
2022-11-11T01:23:33.059Z,89.22
2022-11-11T01:26:03.694Z,89.26
2022-11-11T01:28:33.471Z,89.26
2022-11-11T01:31:06.114Z,89.05
2022-11-11T01:33:34.622Z,89.09
2022-11-11T01:36:08.332Z,89.14
2022-11-11T01:38:37.154Z,89.14
2022-11-11T01:41:26.541Z,89.30
2022-11-11T01:43:56.108Z,89.35
2022-11-11T01:46:35.899Z,89.70
2022-11-11T01:49:21.764Z,89.77
2022-11-11T01:51:56.528Z,89.65
2022-11-11T01:54:29.641Z,89.58
2022-11-11T01:57:03.079Z,89.46
2022-11-11T01:59:33.779Z,89.31
2022-11-11T02:02:07.402Z,88.99
2022-11-11T02:04:55.318Z,88.78
2022-11-11T02:07:24.895Z,88.68
2022-11-11T02:09:55.313Z,88.81
2022-11-11T02:12:41.167Z,89.27
2022-11-11T02:15:11.153Z,89.19
2022-11-11T02:17:39.523Z,89.50
2022-11-11T02:20:11.114Z,89.47
2022-11-11T02:22:47.668Z,89.82
2022-11-11T02:25:22.032Z,89.91
2022-11-11T02:27:53.294Z,89.97
2022-11-11T02:30:22.645Z,90.24
2022-11-11T02:32:52.573Z,90.24
2022-11-11T02:35:22.939Z,89.99
2022-11-11T02:37:53.737Z,90.24
2022-11-11T02:40:28.925Z,90.61
2022-11-11T02:42:56.278Z,90.71
2022-11-11T02:45:24.616Z,90.94
2022-11-11T02:47:52.948Z,91.07
2022-11-11T02:50:21.265Z,91.14
2022-11-11T02:52:50.012Z,91.33
2022-11-11T02:55:18.441Z,91.40
2022-11-11T02:57:48.298Z,91.25
2022-11-11T03:00:18.400Z,90.96
2022-11-11T03:02:46.747Z,90.59
2022-11-11T03:05:15.259Z,90.36
2022-11-11T03:07:43.960Z,90.60
2022-11-11T03:10:12.443Z,90.73
2022-11-11T03:12:41.376Z,91.10
2022-11-11T03:15:12.243Z,91.38
2022-11-11T03:17:42.450Z,91.69
2022-11-11T03:20:28.791Z,91.77
2022-11-11T03:23:04.610Z,91.84
2022-11-11T03:25:38.372Z,92.19
2022-11-11T03:28:06.799Z,92.51
2022-11-11T03:30:36.821Z,92.65
2022-11-11T03:33:05.164Z,92.40
2022-11-11T03:35:34.077Z,92.35
2022-11-11T03:38:18.647Z,92.06
2022-11-11T03:40:48.370Z,91.32
2022-11-11T03:43:18.481Z,90.70
2022-11-11T03:45:48.333Z,90.34
2022-11-11T03:48:16.732Z,89.58
2022-11-11T03:50:47.390Z,89.12
2022-11-11T03:53:16.400Z,88.15
2022-11-11T03:55:45.237Z,87.69
2022-11-11T03:58:13.917Z,87.40
2022-11-11T04:00:42.873Z,87.08
2022-11-11T04:03:33.314Z,87.02
2022-11-11T04:06:18.800Z,86.82
2022-11-11T04:09:06.743Z,86.31
2022-11-11T04:11:38.500Z,86.42
2022-11-11T04:14:23.258Z,86.39
2022-11-11T04:16:51.846Z,86.59
2022-11-11T04:19:39.244Z,86.81
2022-11-11T04:22:07.431Z,86.95
2022-11-11T04:24:53.077Z,86.86
2022-11-11T04:27:21.662Z,86.28
2022-11-11T04:29:48.764Z,86.37
2022-11-11T04:32:39.354Z,86.36
2022-11-11T04:35:10.707Z,86.21
2022-11-11T04:37:50.099Z,86.15
2022-11-11T04:40:36.660Z,85.89
2022-11-11T04:43:04.793Z,85.54
2022-11-11T04:45:32.173Z,85.11
2022-11-11T04:48:02.265Z,84.99
2022-11-11T04:50:33.746Z,84.91
2022-11-11T04:53:02.849Z,84.80
2022-11-11T04:55:48.441Z,84.49
2022-11-11T04:58:18.972Z,84.58
2022-11-11T05:00:47.234Z,84.48
2022-11-11T05:03:19.268Z,84.51
2022-11-11T05:06:08.051Z,84.58
2022-11-11T05:08:55.439Z,84.39
2022-11-11T05:11:25.009Z,84.02
2022-11-11T05:14:10.974Z,84.01
2022-11-11T05:16:59.961Z,84.04
2022-11-11T05:19:45.431Z,83.87
2022-11-11T05:22:18.119Z,84.09
2022-11-11T05:25:03.560Z,84.13
2022-11-11T05:27:31.861Z,83.87
2022-11-11T05:30:00.365Z,83.68
2022-11-11T05:32:28.544Z,83.35
2022-11-11T05:34:56.918Z,83.14
2022-11-11T05:37:26.426Z,82.49
2022-11-11T05:39:54.598Z,82.01
2022-11-11T05:42:22.810Z,81.82
2022-11-11T05:44:51.105Z,81.84
2022-11-11T05:47:19.486Z,81.64
2022-11-11T05:49:47.658Z,81.74
2022-11-11T05:52:17.422Z,81.65
2022-11-11T05:54:47.587Z,81.54
2022-11-11T05:57:15.650Z,80.85
2022-11-11T05:59:43.894Z,80.89
2022-11-11T06:02:12.472Z,80.86
2022-11-11T06:04:40.642Z,80.56
2022-11-11T06:07:08.888Z,80.57
2022-11-11T06:09:37.036Z,80.57
2022-11-11T06:12:07.252Z,80.77
2022-11-11T06:14:35.020Z,80.21
2022-11-11T06:17:03.083Z,80.39
2022-11-11T06:19:31.166Z,80.33
2022-11-11T06:21:59.269Z,80.29
2022-11-11T06:24:27.482Z,80.04
2022-11-11T06:26:56.467Z,80.26
2022-11-11T06:29:26.186Z,80.49
2022-11-11T06:31:54.524Z,80.56
2022-11-11T06:34:23.150Z,80.76
2022-11-11T06:36:51.588Z,80.87
2022-11-11T06:39:19.804Z,81.11
2022-11-11T06:41:47.945Z,80.89
2022-11-11T06:44:16.106Z,80.84
2022-11-11T06:46:45.884Z,81.11
2022-11-11T06:49:14.102Z,80.66
2022-11-11T06:51:42.221Z,80.17
2022-11-11T06:54:10.386Z,79.95
2022-11-11T06:56:38.515Z,79.37
2022-11-11T06:59:06.580Z,79.27
2022-11-11T07:01:34.665Z,78.79
2022-11-11T07:04:04.202Z,78.66
2022-11-11T07:06:32.411Z,78.66
2022-11-11T07:09:00.777Z,78.76
2022-11-11T07:11:28.795Z,78.86
2022-11-11T07:13:57.072Z,78.46
2022-11-11T07:16:25.179Z,78.62
2022-11-11T07:18:53.360Z,78.88
2022-11-11T07:21:24.068Z,78.82
2022-11-11T07:23:52.488Z,78.87
2022-11-11T07:26:20.662Z,78.79
2022-11-11T07:28:50.950Z,78.67
2022-11-11T07:31:18.995Z,78.42
2022-11-11T07:33:47.187Z,78.25
2022-11-11T07:36:15.498Z,78.11
2022-11-11T07:38:45.057Z,77.92
2022-11-11T07:41:13.229Z,78.10
2022-11-11T07:43:41.395Z,78.08
2022-11-11T07:46:09.528Z,78.09
2022-11-11T07:48:40.522Z,78.00
2022-11-11T07:51:08.697Z,78.06
2022-11-11T07:53:36.838Z,78.23
2022-11-11T07:56:06.958Z,78.54
2022-11-11T07:58:34.948Z,78.59
2022-11-11T08:01:07.594Z,78.24
2022-11-11T08:03:49.842Z,78.70
2022-11-11T08:06:18.797Z,79.18
2022-11-11T08:08:47.276Z,79.26
2022-11-11T08:11:17.457Z,79.42
2022-11-11T08:13:44.428Z,79.64
2022-11-11T08:16:15.133Z,79.78
2022-11-11T08:18:43.774Z,80.06
2022-11-11T08:21:11.998Z,80.20
2022-11-11T08:26:30.082Z,80.42
2022-11-11T08:28:58.792Z,80.49
2022-11-11T08:31:27.118Z,80.38
2022-11-11T08:33:55.289Z,80.18
2022-11-11T08:36:25.531Z,80.15
2022-11-11T08:38:54.566Z,80.18
2022-11-11T08:41:23.892Z,79.44
2022-11-11T08:43:57.153Z,79.46
2022-11-11T08:46:25.954Z,79.12
2022-11-11T08:48:54.779Z,79.24
2022-11-11T08:51:22.905Z,78.93
2022-11-11T08:53:51.234Z,78.86
2022-11-11T08:56:19.510Z,78.90
2022-11-11T08:58:47.587Z,78.69
2022-11-11T09:01:17.127Z,78.69
2022-11-11T09:03:46.322Z,78.52
2022-11-11T09:06:15.026Z,78.50
2022-11-11T09:08:44.702Z,78.58
2022-11-11T09:11:18.881Z,78.51
2022-11-11T09:13:48.718Z,77.84
2022-11-11T09:16:18.235Z,77.12
2022-11-11T09:18:47.618Z,76.43
2022-11-11T09:21:15.845Z,76.09
2022-11-11T09:23:44.132Z,75.61
2022-11-11T09:26:12.476Z,75.49
2022-11-11T09:28:45.917Z,75.85
2022-11-11T09:34:08.422Z,75.75
2022-11-11T09:36:36.588Z,75.57
2022-11-11T09:39:05.046Z,75.65
2022-11-11T09:41:45.855Z,75.34
2022-11-11T09:44:28.295Z,75.21
2022-11-11T09:47:05.909Z,75.06
2022-11-11T09:49:44.411Z,74.71
2022-11-11T09:52:18.793Z,74.35
2022-11-11T09:54:52.714Z,74.00
2022-11-11T09:57:28.814Z,73.48
2022-11-11T10:00:04.533Z,72.79
2022-11-11T10:02:48.357Z,72.30
2022-11-11T10:05:20.585Z,71.68
2022-11-11T10:07:54.083Z,71.22
2022-11-11T10:10:31.264Z,70.75
2022-11-11T10:13:00.101Z,70.77
2022-11-11T10:15:35.097Z,70.67
2022-11-11T10:18:19.144Z,70.87
2022-11-11T10:20:54.028Z,71.00
2022-11-11T10:23:30.562Z,71.42
2022-11-11T10:26:03.276Z,71.68
2022-11-11T10:28:37.147Z,71.79
2022-11-11T10:31:12.915Z,72.57
2022-11-11T10:33:49.462Z,73.25
2022-11-11T10:36:20.672Z,73.57
2022-11-11T10:38:54.616Z,74.29
2022-11-11T10:41:28.938Z,74.31
2022-11-11T10:43:58.279Z,74.83
2022-11-11T10:46:30.677Z,74.81
2022-11-11T10:49:05.155Z,74.36
2022-11-11T10:51:40.839Z,73.71
2022-11-11T10:54:15.445Z,73.39
2022-11-11T10:56:47.929Z,73.38
2022-11-11T10:59:20.609Z,73.01
2022-11-11T11:01:59.251Z,72.52
2022-11-11T11:04:37.123Z,72.48
2022-11-11T11:07:07.687Z,72.55
2022-11-11T11:09:41.499Z,72.62
2022-11-11T11:12:16.004Z,72.35
2022-11-11T11:14:47.376Z,72.21
2022-11-11T11:17:21.237Z,71.90
2022-11-11T11:20:09.248Z,72.17
2022-11-11T11:23:00.446Z,72.31
2022-11-11T11:25:30.774Z,72.01
2022-11-11T11:28:11.189Z,72.26
2022-11-11T11:31:02.023Z,71.95
2022-11-11T11:33:51.416Z,72.18
2022-11-11T11:36:22.771Z,71.83
2022-11-11T11:38:51.887Z,72.03
2022-11-11T11:41:38.722Z,71.53
2022-11-11T11:44:26.372Z,71.20
2022-11-11T11:47:00.117Z,71.21
2022-11-11T11:49:44.862Z,71.10
2022-11-11T11:52:21.023Z,71.52
2022-11-11T11:54:57.538Z,71.87
2022-11-11T11:57:42.141Z,72.83
2022-11-11T12:00:19.533Z,73.21
2022-11-11T12:03:07.523Z,73.29
2022-11-11T12:05:41.277Z,73.49
2022-11-11T12:08:32.129Z,73.57
2022-11-11T12:11:07.414Z,73.65
2022-11-11T12:13:40.987Z,73.21
2022-11-11T12:16:22.798Z,72.83
2022-11-11T12:19:07.243Z,72.86
2022-11-11T12:21:44.352Z,73.17
2022-11-11T12:24:31.145Z,73.20
2022-11-11T12:27:12.149Z,73.24
2022-11-11T12:29:59.011Z,73.15
2022-11-11T12:32:52.525Z,73.82
2022-11-11T12:35:34.225Z,74.82
2022-11-11T12:38:22.775Z,75.42
2022-11-11T12:41:08.625Z,75.83
2022-11-11T12:43:48.762Z,75.39
2022-11-11T12:46:20.510Z,75.36
2022-11-11T12:49:02.906Z,74.70
2022-11-11T12:51:47.721Z,73.72
2022-11-11T12:54:28.104Z,72.96
2022-11-11T12:57:07.791Z,73.23
2022-11-11T12:59:56.724Z,73.25
2022-11-11T13:02:53.810Z,72.78
2022-11-11T13:05:29.639Z,72.54
2022-11-11T13:08:22.494Z,72.27
2022-11-11T13:10:57.082Z,72.28
2022-11-11T13:13:41.506Z,71.91
2022-11-11T13:16:10.317Z,71.79
2022-11-11T13:18:49.712Z,71.98
2022-11-11T13:21:22.419Z,71.81
2022-11-11T13:23:50.649Z,72.87
2022-11-11T13:26:29.290Z,72.91
2022-11-11T13:29:18.182Z,73.02
2022-11-11T13:31:48.490Z,72.98
2022-11-11T13:34:17.444Z,73.23
2022-11-11T13:36:52.944Z,73.23
2022-11-11T13:39:34.999Z,73.19
2022-11-11T13:42:07.159Z,73.20
2022-11-11T13:44:51.735Z,73.36
2022-11-11T13:47:25.631Z,73.46
2022-11-11T13:49:57.601Z,72.92
2022-11-11T13:52:29.041Z,73.15
2022-11-11T13:55:02.243Z,72.72
2022-11-11T13:57:36.154Z,72.71
2022-11-11T14:00:09.497Z,73.27
2022-11-11T14:02:37.872Z,73.60
2022-11-11T14:05:22.903Z,73.70
2022-11-11T14:08:00.375Z,73.55
2022-11-11T14:10:57.184Z,74.24
2022-11-11T14:13:42.451Z,74.80
2022-11-11T14:16:13.769Z,75.01
2022-11-11T14:18:45.885Z,75.09
2022-11-11T14:21:48.130Z,75.29
2022-11-11T14:24:26.616Z,75.18
2022-11-11T14:27:02.282Z,75.27
2022-11-11T14:29:36.578Z,75.80
2022-11-11T14:32:26.693Z,76.35
2022-11-11T14:35:20.330Z,76.21
2022-11-11T14:38:05.820Z,76.25
2022-11-11T14:40:35.440Z,76.49
2022-11-11T14:43:38.321Z,76.79
2022-11-11T14:46:16.090Z,77.28
2022-11-11T14:49:12.544Z,77.73
2022-11-11T14:51:51.076Z,78.12
2022-11-11T14:54:26.538Z,78.29
2022-11-11T14:57:03.230Z,78.67
2022-11-11T14:59:33.583Z,79.09
2022-11-11T15:02:02.848Z,79.17
2022-11-11T15:04:40.417Z,79.47
2022-11-11T15:07:24.173Z,79.46
2022-11-11T15:10:20.284Z,79.25
2022-11-11T15:13:25.000Z,79.27
2022-11-11T15:16:02.201Z,79.47
2022-11-11T15:18:53.425Z,79.61
2022-11-11T15:21:31.728Z,80.07
2022-11-11T15:24:15.011Z,80.33
2022-11-11T15:26:53.946Z,80.41
2022-11-11T15:29:44.689Z,80.93
2022-11-11T15:32:24.135Z,81.25
2022-11-11T15:35:03.433Z,81.50
2022-11-11T15:37:33.495Z,81.90
2022-11-11T15:40:01.977Z,82.27
2022-11-11T15:42:33.628Z,82.35
2022-11-11T15:45:05.344Z,82.74
2022-11-11T15:47:37.596Z,82.96
2022-11-11T15:50:17.406Z,82.80
2022-11-11T15:52:47.464Z,82.99
2022-11-11T15:55:23.746Z,83.22
2022-11-11T15:57:51.859Z,83.35
2022-11-11T16:00:30.172Z,83.68
2022-11-11T16:02:58.833Z,83.67
2022-11-11T16:05:28.369Z,83.82
2022-11-11T16:07:59.874Z,84.05
2022-11-11T16:10:30.516Z,83.95
2022-11-11T16:13:04.938Z,84.19
2022-11-11T16:15:41.177Z,84.42
2022-11-11T16:18:16.923Z,84.49
2022-11-11T16:20:50.388Z,84.46
2022-11-11T16:23:21.969Z,84.42
2022-11-11T16:25:53.727Z,84.61
2022-11-11T16:28:22.952Z,84.75
2022-11-11T16:30:51.235Z,85.00
2022-11-11T16:33:36.074Z,85.35
2022-11-11T16:36:11.649Z,85.72
2022-11-11T16:38:41.211Z,85.88
2022-11-11T16:41:25.668Z,85.99
2022-11-11T16:43:55.056Z,85.83
2022-11-11T18:42:25.312Z,99.27
2022-11-11T18:44:54.114Z,99.78
2022-11-11T18:47:23.039Z,99.59
2022-11-11T18:49:51.440Z,99.72
2022-11-11T18:52:20.724Z,99.71
2022-11-11T18:54:52.381Z,99.56
2022-11-11T18:57:20.849Z,99.66
2022-11-11T18:59:50.500Z,99.43
2022-11-11T19:02:18.871Z,99.34
2022-11-11T19:04:47.366Z,99.76
2022-11-11T19:07:16.134Z,100.00
2022-11-11T19:09:44.513Z,100.00
2022-11-11T19:12:12.990Z,100.00
2022-11-11T19:14:41.419Z,100.00
2022-11-11T19:17:25.520Z,100.00
2022-11-11T19:19:56.331Z,100.00
2022-11-11T19:22:24.844Z,100.00
2022-11-11T19:24:53.818Z,100.00
2022-11-11T19:27:23.130Z,100.00
2022-11-11T19:29:55.109Z,100.00
2022-11-11T19:32:25.213Z,100.00
2022-11-11T19:35:03.320Z,100.00
2022-11-11T19:37:31.790Z,100.00
2022-11-11T19:40:00.609Z,100.00
2022-11-11T19:42:29.530Z,100.00
2022-11-11T19:44:57.858Z,100.00
2022-11-11T19:47:28.107Z,100.00
2022-11-11T19:49:56.804Z,100.00
2022-11-11T19:52:29.351Z,100.00
2022-11-11T19:55:00.578Z,100.00
2022-11-11T19:57:37.279Z,100.00
2022-11-11T20:00:09.143Z,100.00
